createdAt,value
2018-12-11T00:01:03.000Z,27
2018-12-11T00:02:18.000Z,27
2018-12-11T00:04:18.000Z,27
2018-12-11T00:06:18.000Z,26.9
2018-12-11T00:08:18.000Z,26.9
2018-12-11T00:09:18.000Z,27
2018-12-11T00:11:18.000Z,27
2018-12-11T00:12:18.000Z,27
2018-12-11T00:13:18.000Z,27
2018-12-11T00:15:18.000Z,27
2018-12-11T00:16:18.000Z,27
2018-12-11T00:17:18.000Z,27
2018-12-11T00:19:18.000Z,27
2018-12-11T00:20:18.000Z,27
2018-12-11T00:21:18.000Z,27
2018-12-11T00:22:18.000Z,27.1
2018-12-11T00:23:18.000Z,27.1
2018-12-11T00:25:18.000Z,27.1
2018-12-11T00:27:18.000Z,27
2018-12-11T00:29:18.000Z,26.9
2018-12-11T00:31:18.000Z,26.9
2018-12-11T00:32:18.000Z,26.9
2018-12-11T00:33:18.000Z,27
2018-12-11T00:35:18.000Z,27
2018-12-11T00:37:03.000Z,27
2018-12-11T00:38:18.000Z,27
2018-12-11T00:40:18.000Z,26.9
2018-12-11T00:42:18.000Z,26.8
2018-12-11T00:43:18.000Z,26.8
2018-12-11T00:45:18.000Z,26.9
2018-12-11T00:47:18.000Z,26.9
2018-12-11T00:48:18.000Z,26.9
2018-12-11T00:50:18.000Z,26.9
2018-12-11T00:52:18.000Z,26.8
2018-12-11T00:53:18.000Z,26.8
2018-12-11T00:55:18.000Z,26.8
2018-12-11T00:56:18.000Z,26.8
2018-12-11T00:58:18.000Z,26.8
2018-12-11T00:59:18.000Z,26.9
2018-12-11T01:01:18.000Z,26.9
2018-12-11T01:03:18.000Z,26.8
2018-12-11T01:05:18.000Z,26.6
2018-12-11T01:06:18.000Z,26.6
2018-12-11T01:07:18.000Z,26.7
2018-12-11T01:09:18.000Z,26.7
2018-12-11T01:11:18.000Z,26.6
2018-12-11T01:13:18.000Z,26.6
2018-12-11T01:14:18.000Z,26.6
2018-12-11T01:15:18.000Z,26.6
2018-12-11T01:16:18.000Z,26.7
2018-12-11T01:17:18.000Z,26.8
2018-12-11T01:19:18.000Z,26.9
2018-12-11T01:21:03.000Z,26.9
2018-12-11T01:22:18.000Z,26.9
2018-12-11T01:24:18.000Z,26.9
2018-12-11T01:26:18.000Z,26.8
2018-12-11T01:28:18.000Z,26.8
2018-12-11T01:30:18.000Z,26.8
2018-12-11T01:31:18.000Z,26.8
2018-12-11T01:33:18.000Z,26.8
2018-12-11T01:35:18.000Z,26.8
2018-12-11T01:36:18.000Z,26.7
2018-12-11T01:38:18.000Z,26.7
2018-12-11T01:39:18.000Z,26.7
2018-12-11T01:41:18.000Z,26.7
2018-12-11T01:43:18.000Z,26.6
2018-12-11T01:44:18.000Z,26.6
2018-12-11T01:46:18.000Z,26.6
2018-12-11T01:47:18.000Z,26.6
2018-12-11T01:49:18.000Z,26.7
2018-12-11T01:50:18.000Z,26.7
2018-12-11T01:52:18.000Z,26.7
2018-12-11T01:54:18.000Z,26.7
2018-12-11T01:55:18.000Z,26.7
2018-12-11T01:56:18.000Z,26.8
2018-12-11T01:57:18.000Z,26.8
2018-12-11T01:58:18.000Z,26.9
2018-12-11T01:59:18.000Z,26.9
2018-12-11T02:01:18.000Z,27
2018-12-11T02:02:18.000Z,27
2018-12-11T02:03:18.000Z,27
2018-12-11T02:05:18.000Z,27
2018-12-11T02:07:18.000Z,27
2018-12-11T02:08:18.000Z,26.9
2018-12-11T02:10:03.000Z,26.9
2018-12-11T02:11:18.000Z,26.9
2018-12-11T02:13:18.000Z,26.8
2018-12-11T02:14:18.000Z,26.7
2018-12-11T02:15:18.000Z,26.8
2018-12-11T02:16:18.000Z,26.8
2018-12-11T02:18:18.000Z,26.8
2018-12-11T02:20:18.000Z,26.8
2018-12-11T02:22:18.000Z,26.8
2018-12-11T02:23:18.000Z,26.8
2018-12-11T02:25:18.000Z,26.8
2018-12-11T02:27:03.000Z,26.8
2018-12-11T02:28:18.000Z,26.7
2018-12-11T02:30:18.000Z,26.7
2018-12-11T02:31:18.000Z,26.7
2018-12-11T02:32:18.000Z,26.7
2018-12-11T02:34:18.000Z,26.8
2018-12-11T02:36:18.000Z,26.8
2018-12-11T02:37:18.000Z,26.8
2018-12-11T02:39:18.000Z,26.8
2018-12-11T02:40:18.000Z,26.8
2018-12-11T02:42:18.000Z,26.8
2018-12-11T02:44:18.000Z,26.7
2018-12-11T02:46:03.000Z,26.6
2018-12-11T02:47:18.000Z,26.5
2018-12-11T02:49:18.000Z,26.4
2018-12-11T02:50:18.000Z,26.4
2018-12-11T02:52:18.000Z,26.4
2018-12-11T02:54:18.000Z,26.4
2018-12-11T02:55:18.000Z,26.5
2018-12-11T02:56:18.000Z,26.5
2018-12-11T02:57:18.000Z,26.6
2018-12-11T02:59:03.000Z,26.8
2018-12-11T03:00:18.000Z,26.7
2018-12-11T03:02:18.000Z,26.7
2018-12-11T03:04:18.000Z,26.6
2018-12-11T03:06:18.000Z,26.5
2018-12-11T03:08:18.000Z,26.4
2018-12-11T03:10:18.000Z,26.4
2018-12-11T03:11:18.000Z,26.4
2018-12-11T03:13:18.000Z,26.4
2018-12-11T03:15:18.000Z,26.3
2018-12-11T03:16:18.000Z,26.3
2018-12-11T03:18:03.000Z,26.4
2018-12-11T03:19:18.000Z,26.4
2018-12-11T03:20:18.000Z,26.5
2018-12-11T03:21:18.000Z,26.5
2018-12-11T03:23:18.000Z,26.6
2018-12-11T03:25:18.000Z,26.6
2018-12-11T03:27:18.000Z,26.6
2018-12-11T03:29:18.000Z,26.6
2018-12-11T03:30:18.000Z,26.6
2018-12-11T03:31:18.000Z,26.6
2018-12-11T03:32:18.000Z,26.7
2018-12-11T03:34:03.000Z,26.7
2018-12-11T03:35:18.000Z,26.7
2018-12-11T03:37:18.000Z,26.7
2018-12-11T03:39:18.000Z,26.6
2018-12-11T03:41:18.000Z,26.5
2018-12-11T03:43:18.000Z,26.5
2018-12-11T03:45:03.000Z,26.5
2018-12-11T03:46:03.000Z,26.5
2018-12-11T03:47:18.000Z,26.5
2018-12-11T03:49:03.000Z,26.5
2018-12-11T03:50:18.000Z,26.5
2018-12-11T03:52:18.000Z,26.5
2018-12-11T03:54:18.000Z,26.2
2018-12-11T03:55:18.000Z,26.2
2018-12-11T03:57:18.000Z,26.3
2018-12-11T03:59:18.000Z,26.4
2018-12-11T04:01:18.000Z,26.4
2018-12-11T04:02:18.000Z,26.4
2018-12-11T04:04:03.000Z,26.5
2018-12-11T04:05:18.000Z,26.4
2018-12-11T04:07:18.000Z,26.5
2018-12-11T04:08:18.000Z,26.5
2018-12-11T04:09:18.000Z,26.6
2018-12-11T04:11:18.000Z,26.6
2018-12-11T04:13:03.000Z,26.7
2018-12-11T04:14:18.000Z,26.6
2018-12-11T04:16:18.000Z,26.5
2018-12-11T04:17:18.000Z,26.5
2018-12-11T04:19:18.000Z,26.6
2018-12-11T04:20:18.000Z,26.6
2018-12-11T04:21:18.000Z,26.6
2018-12-11T04:22:18.000Z,26.7
2018-12-11T04:24:18.000Z,26.7
2018-12-11T04:25:18.000Z,26.7
2018-12-11T04:27:18.000Z,26.7
2018-12-11T04:29:18.000Z,26.7
2018-12-11T04:30:18.000Z,26.7
2018-12-11T04:32:03.000Z,26.7
2018-12-11T04:33:18.000Z,26.7
2018-12-11T04:35:18.000Z,26.7
2018-12-11T04:36:18.000Z,26.7
2018-12-11T04:38:18.000Z,26.7
2018-12-11T04:39:18.000Z,26.7
2018-12-11T04:40:18.000Z,26.7
2018-12-11T04:42:18.000Z,26.7
2018-12-11T04:43:18.000Z,26.7
2018-12-11T04:45:18.000Z,26.7
2018-12-11T04:47:18.000Z,26.6
2018-12-11T04:49:18.000Z,26.5
2018-12-11T04:51:03.000Z,26.5
2018-12-11T04:52:18.000Z,26.4
2018-12-11T04:54:18.000Z,26.4
2018-12-11T04:56:18.000Z,26.4
2018-12-11T04:58:18.000Z,26.4
2018-12-11T05:00:18.000Z,26.4
2018-12-11T05:01:18.000Z,26.5
2018-12-11T05:03:18.000Z,26.5
2018-12-11T05:05:18.000Z,26.5
2018-12-11T05:07:18.000Z,26.4
2018-12-11T05:08:18.000Z,26.4
2018-12-11T05:10:03.000Z,26.4
2018-12-11T05:11:18.000Z,26.3
2018-12-11T05:12:18.000Z,26.4
2018-12-11T05:14:18.000Z,26.4
2018-12-11T05:15:18.000Z,26.5
2018-12-11T05:17:18.000Z,26.5
2018-12-11T05:19:18.000Z,26.5
2018-12-11T05:21:18.000Z,26.5
2018-12-11T05:22:18.000Z,26.5
2018-12-11T05:24:18.000Z,26.5
2018-12-11T05:26:18.000Z,26.5
2018-12-11T05:27:18.000Z,26.4
2018-12-11T05:29:18.000Z,26.4
2018-12-11T05:30:18.000Z,26.5
2018-12-11T05:32:18.000Z,26.5
2018-12-11T05:33:18.000Z,26.6
2018-12-11T05:34:18.000Z,26.6
2018-12-11T05:35:18.000Z,26.7
2018-12-11T05:36:18.000Z,26.7
2018-12-11T05:38:18.000Z,26.8
2018-12-11T05:40:18.000Z,26.8
2018-12-11T05:42:18.000Z,26.7
2018-12-11T05:44:18.000Z,26.7
2018-12-11T05:45:18.000Z,26.7
2018-12-11T05:47:18.000Z,26.6
2018-12-11T05:48:18.000Z,26.6
2018-12-11T05:49:18.000Z,26.7
2018-12-11T05:51:18.000Z,26.8
2018-12-11T05:52:18.000Z,26.8
2018-12-11T05:54:18.000Z,26.8
2018-12-11T05:55:18.000Z,26.8
2018-12-11T05:57:18.000Z,26.9
2018-12-11T05:58:18.000Z,26.9
2018-12-11T06:00:18.000Z,26.9
2018-12-11T06:01:18.000Z,26.9
2018-12-11T06:03:18.000Z,26.9
2018-12-11T06:04:18.000Z,26.9
2018-12-11T06:06:18.000Z,26.9
2018-12-11T06:08:18.000Z,26.8
2018-12-11T06:10:18.000Z,26.8
2018-12-11T06:12:18.000Z,26.7
2018-12-11T06:14:18.000Z,26.6
2018-12-11T06:16:03.000Z,26.6
2018-12-11T06:17:18.000Z,26.6
2018-12-11T06:19:18.000Z,26.6
2018-12-11T06:21:18.000Z,26.6
2018-12-11T06:23:18.000Z,26.6
2018-12-11T06:25:03.000Z,26.7
2018-12-11T06:26:18.000Z,26.6
2018-12-11T06:27:18.000Z,26.6
2018-12-11T06:28:18.000Z,26.6
2018-12-11T06:29:18.000Z,26.7
2018-12-11T06:30:18.000Z,26.8
2018-12-11T06:32:18.000Z,26.9
2018-12-11T06:34:18.000Z,26.9
2018-12-11T06:35:18.000Z,27
2018-12-11T06:36:18.000Z,27
2018-12-11T06:38:18.000Z,27.1
2018-12-11T06:39:18.000Z,27.2
2018-12-11T06:40:18.000Z,27.2
2018-12-11T06:42:18.000Z,27.3
2018-12-11T06:44:18.000Z,27.2
2018-12-11T06:45:18.000Z,27.2
2018-12-11T06:46:18.000Z,27.3
2018-12-11T06:48:18.000Z,27.3
2018-12-11T06:49:18.000Z,27.3
2018-12-11T06:51:18.000Z,27.3
2018-12-11T06:52:18.000Z,27.2
2018-12-11T06:54:18.000Z,27.2
2018-12-11T06:56:03.000Z,27.2
2018-12-11T06:57:18.000Z,27.1
2018-12-11T06:59:18.000Z,27.1
2018-12-11T07:00:18.000Z,27.1
2018-12-11T07:01:18.000Z,27.1
2018-12-11T07:02:18.000Z,27.1
2018-12-11T07:04:18.000Z,27.2
2018-12-11T07:05:18.000Z,27.2
2018-12-11T07:07:18.000Z,27.2
2018-12-11T07:08:18.000Z,27.2
2018-12-11T07:10:18.000Z,27.2
2018-12-11T07:12:18.000Z,27.2
2018-12-11T07:14:18.000Z,27.1
2018-12-11T07:16:18.000Z,27.1
2018-12-11T07:18:03.000Z,27
2018-12-11T07:19:18.000Z,27
2018-12-11T07:20:18.000Z,27
2018-12-11T07:22:18.000Z,27.1
2018-12-11T07:24:18.000Z,27
2018-12-11T07:26:02.000Z,27
2018-12-11T07:27:18.000Z,27
2018-12-11T07:29:18.000Z,26.9
2018-12-11T07:31:18.000Z,26.9
2018-12-11T07:33:18.000Z,26.9
2018-12-11T07:35:18.000Z,26.8
2018-12-11T07:37:18.000Z,26.9
2018-12-11T07:39:18.000Z,26.9
2018-12-11T07:40:18.000Z,27
2018-12-11T07:42:18.000Z,27.1
2018-12-11T07:44:18.000Z,27.1
2018-12-11T07:46:18.000Z,27.2
2018-12-11T07:47:18.000Z,27.2
2018-12-11T07:49:18.000Z,27.4
2018-12-11T07:51:18.000Z,27.4
2018-12-11T07:53:02.000Z,27.4
2018-12-11T07:54:18.000Z,27.3
2018-12-11T07:55:18.000Z,27.3
2018-12-11T07:56:18.000Z,27.3
2018-12-11T07:58:18.000Z,27.5
2018-12-11T07:59:18.000Z,27.5
2018-12-11T08:01:02.000Z,27.6
2018-12-11T08:02:18.000Z,27.6
2018-12-11T08:04:18.000Z,27.5
2018-12-11T08:05:18.000Z,27.6
2018-12-11T08:06:18.000Z,27.6
2018-12-11T08:08:18.000Z,27.7
2018-12-11T08:09:18.000Z,27.7
2018-12-11T08:11:02.000Z,27.7
2018-12-11T08:12:03.000Z,27.7
2018-12-11T08:14:18.000Z,27.5
2018-12-11T08:16:18.000Z,27.5
2018-12-11T08:17:18.000Z,27.5
2018-12-11T08:19:18.000Z,27.6
2018-12-11T08:21:18.000Z,27.6
2018-12-11T08:23:18.000Z,27.6
2018-12-11T08:24:18.000Z,27.6
2018-12-11T08:25:18.000Z,27.6
2018-12-11T08:27:18.000Z,27.7
2018-12-11T08:29:18.000Z,27.7
2018-12-11T08:31:18.000Z,27.8
2018-12-11T08:32:18.000Z,27.8
2018-12-11T08:34:18.000Z,27.9
2018-12-11T08:35:18.000Z,28
2018-12-11T08:36:18.000Z,28.1
2018-12-11T08:38:18.000Z,28.2
2018-12-11T08:39:18.000Z,28.2
2018-12-11T08:41:18.000Z,28.3
2018-12-11T08:43:18.000Z,28.2
2018-12-11T08:45:18.000Z,28.2
2018-12-11T08:47:18.000Z,28.2
2018-12-11T08:48:18.000Z,28.2
2018-12-11T08:50:18.000Z,28.3
2018-12-11T08:51:18.000Z,28.3
2018-12-11T08:53:18.000Z,28.4
2018-12-11T08:55:18.000Z,28.3
2018-12-11T08:56:18.000Z,28.3
2018-12-11T08:57:18.000Z,28.4
2018-12-11T08:59:03.000Z,28.4
2018-12-11T09:00:18.000Z,28.3
2018-12-11T09:01:18.000Z,28.2
2018-12-11T09:03:18.000Z,28.2
2018-12-11T09:05:18.000Z,28.1
2018-12-11T09:06:18.000Z,28.2
2018-12-11T09:08:18.000Z,28.2
2018-12-11T09:10:18.000Z,28.3
2018-12-11T09:12:03.000Z,28.3
2018-12-11T09:13:18.000Z,28.2
2018-12-11T09:14:18.000Z,28.3
2018-12-11T09:15:18.000Z,28.3
2018-12-11T09:17:03.000Z,28.4
2018-12-11T09:18:18.000Z,28.4
2018-12-11T09:19:18.000Z,28.4
2018-12-11T09:21:18.000Z,28.6
2018-12-11T09:22:18.000Z,28.7
2018-12-11T09:23:18.000Z,28.8
2018-12-11T09:24:18.000Z,28.9
2018-12-11T09:25:18.000Z,29
2018-12-11T09:27:18.000Z,29.1
2018-12-11T09:28:18.000Z,29.1
2018-12-11T09:29:18.000Z,29.2
2018-12-11T09:31:03.000Z,29.3
2018-12-11T09:32:18.000Z,29.3
2018-12-11T09:33:18.000Z,29.3
2018-12-11T09:34:18.000Z,29.4
2018-12-11T09:35:18.000Z,29.5
2018-12-11T09:37:18.000Z,29.5
2018-12-11T09:38:18.000Z,29.5
2018-12-11T09:40:18.000Z,29.5
2018-12-11T09:42:07.000Z,29.3
2018-12-11T09:44:18.000Z,29.1
2018-12-11T09:45:18.000Z,29
2018-12-11T09:46:18.000Z,29.1
2018-12-11T09:48:18.000Z,29.1
2018-12-11T09:50:18.000Z,29.1
2018-12-11T09:51:18.000Z,29.1
2018-12-11T09:53:18.000Z,29
2018-12-11T09:54:18.000Z,28.9
2018-12-11T09:56:18.000Z,29
2018-12-11T09:58:18.000Z,28.8
2018-12-11T10:00:18.000Z,28.8
2018-12-11T10:02:03.000Z,28.6
2018-12-11T10:03:18.000Z,28.6
2018-12-11T10:05:18.000Z,28.6
2018-12-11T10:07:19.000Z,28.7
2018-12-11T10:09:18.000Z,28.8
2018-12-11T10:11:03.000Z,29
2018-12-11T10:12:18.000Z,29
2018-12-11T10:13:18.000Z,29
2018-12-11T10:14:18.000Z,29.1
2018-12-11T10:16:18.000Z,29.1
2018-12-11T10:17:19.000Z,29.1
2018-12-11T10:19:18.000Z,29.2
2018-12-11T10:21:18.000Z,29.1
2018-12-11T10:22:18.000Z,29.1
2018-12-11T10:23:18.000Z,29.2
2018-12-11T10:25:18.000Z,29.2
2018-12-11T10:26:18.000Z,29.2
2018-12-11T10:28:18.000Z,29.3
2018-12-11T10:29:18.000Z,29.3
2018-12-11T10:31:18.000Z,29.4
2018-12-11T10:33:18.000Z,29.5
2018-12-11T10:34:18.000Z,29.6
2018-12-11T10:35:18.000Z,29.7
2018-12-11T10:36:18.000Z,29.8
2018-12-11T10:38:18.000Z,29.9
2018-12-11T10:40:18.000Z,29.9
2018-12-11T10:41:18.000Z,29.9
2018-12-11T10:42:18.000Z,30
2018-12-11T10:44:18.000Z,30.1
2018-12-11T10:46:18.000Z,30.1
2018-12-11T10:47:18.000Z,30.1
2018-12-11T10:49:18.000Z,30.1
2018-12-11T10:51:18.000Z,30.1
2018-12-11T10:52:18.000Z,30.1
2018-12-11T10:53:18.000Z,30.1
2018-12-11T10:54:18.000Z,30.1
2018-12-11T10:55:18.000Z,30.1
2018-12-11T10:57:03.000Z,30.1
2018-12-11T10:58:18.000Z,30.1
2018-12-11T10:59:18.000Z,30.1
2018-12-11T11:10:30.000Z,28.7
2018-12-11T11:12:16.000Z,28.7
2018-12-11T11:14:15.000Z,28.7
2018-12-11T11:15:16.000Z,28.8
2018-12-11T11:17:16.000Z,28.9
2018-12-11T11:19:16.000Z,28.9
2018-12-11T11:20:16.000Z,29
2018-12-11T11:22:16.000Z,29
2018-12-11T11:24:16.000Z,28.9
2018-12-11T11:26:16.000Z,28.9
2018-12-11T11:27:16.000Z,28.9
2018-12-11T11:29:16.000Z,28.9
2018-12-11T11:31:16.000Z,28.8
2018-12-11T11:33:16.000Z,28.7
2018-12-11T11:35:15.000Z,28.6
2018-12-11T11:36:15.000Z,28.6
2018-12-11T11:38:15.000Z,28.6
2018-12-11T11:39:15.000Z,28.6
2018-12-11T11:40:15.000Z,28.6
2018-12-11T11:42:15.000Z,28.6
2018-12-11T11:43:15.000Z,28.6
2018-12-11T11:45:15.000Z,28.5
2018-12-11T11:47:15.000Z,28.5
2018-12-11T11:48:15.000Z,28.5
2018-12-11T11:50:15.000Z,28.6
2018-12-11T11:51:15.000Z,28.7
2018-12-11T11:53:15.000Z,28.8
2018-12-11T11:55:15.000Z,28.9
2018-12-11T11:57:15.000Z,28.9
2018-12-11T11:59:15.000Z,29
2018-12-11T12:00:15.000Z,29
2018-12-11T12:02:15.000Z,29.2
2018-12-11T12:04:15.000Z,29.4
2018-12-11T12:06:15.000Z,29.6
2018-12-11T12:08:00.000Z,29.6
2018-12-11T12:09:15.000Z,29.6
2018-12-11T12:10:15.000Z,29.6
2018-12-11T12:11:15.000Z,29.8
2018-12-11T12:13:15.000Z,30
2018-12-11T12:15:15.000Z,30
2018-12-11T12:17:15.000Z,29.8
2018-12-11T12:19:15.000Z,29.6
2018-12-11T12:20:15.000Z,29.5
2018-12-11T12:22:15.000Z,29.6
2018-12-11T12:23:15.000Z,29.6
2018-12-11T12:24:15.000Z,29.7
2018-12-11T12:26:15.000Z,29.8
2018-12-11T12:28:15.000Z,29.8
2018-12-11T12:29:15.000Z,29.9
2018-12-11T12:31:15.000Z,29.9
2018-12-11T12:32:15.000Z,29.7
2018-12-11T12:34:15.000Z,29.2
2018-12-11T12:35:15.000Z,29
2018-12-11T12:37:15.000Z,28.7
2018-12-11T12:39:16.000Z,28.4
2018-12-11T12:40:16.000Z,28.3
2018-12-11T12:42:16.000Z,28
2018-12-11T12:44:16.000Z,27.6
2018-12-11T12:45:16.000Z,27.5
2018-12-11T12:46:16.000Z,27.4
2018-12-11T12:48:16.000Z,27.2
2018-12-11T12:49:16.000Z,27.2
2018-12-11T12:51:16.000Z,27.1
2018-12-11T12:53:16.000Z,27
2018-12-11T12:55:16.000Z,26.9
2018-12-11T12:57:01.000Z,26.8
2018-12-11T12:58:16.000Z,26.7
2018-12-11T13:00:16.000Z,26.5
2018-12-11T13:02:16.000Z,26.4
2018-12-11T13:04:16.000Z,26.3
2018-12-11T13:05:16.000Z,26.3
2018-12-11T13:07:16.000Z,26.2
2018-12-11T13:08:16.000Z,26.2
2018-12-11T13:09:16.000Z,26.2
2018-12-11T13:10:16.000Z,26.3
2018-12-11T13:11:16.000Z,26.4
2018-12-11T13:13:16.000Z,26.4
2018-12-11T13:15:01.000Z,26.3
2018-12-11T13:16:16.000Z,26.1
2018-12-11T13:17:16.000Z,26
2018-12-11T13:18:16.000Z,25.9
2018-12-11T13:20:16.000Z,25.8
2018-12-11T13:21:16.000Z,25.7
2018-12-11T13:23:16.000Z,25.6
2018-12-11T13:24:16.000Z,25.6
2018-12-11T13:25:16.000Z,25.6
2018-12-11T13:27:16.000Z,25.6
2018-12-11T13:28:16.000Z,25.6
2018-12-11T13:30:01.000Z,25.6
2018-12-11T13:31:16.000Z,25.5
2018-12-11T13:33:16.000Z,25.4
2018-12-11T13:35:16.000Z,25.2
2018-12-11T13:37:16.000Z,25.1
2018-12-11T13:39:16.000Z,24.9
2018-12-11T13:40:16.000Z,24.8
2018-12-11T13:42:16.000Z,24.6
2018-12-11T13:43:16.000Z,24.4
2018-12-11T13:44:16.000Z,24.3
2018-12-11T13:45:16.000Z,24.2
2018-12-11T13:47:16.000Z,24
2018-12-11T13:48:16.000Z,23.9
2018-12-11T13:50:16.000Z,23.9
2018-12-11T13:51:16.000Z,24
2018-12-11T13:53:16.000Z,24.1
2018-12-11T13:54:16.000Z,24.1
2018-12-11T13:56:16.000Z,24.1
2018-12-11T13:57:16.000Z,24.1
2018-12-11T13:59:16.000Z,24.1
2018-12-11T14:00:16.000Z,24.1
2018-12-11T14:02:16.000Z,24.1
2018-12-11T14:04:16.000Z,24.1
2018-12-11T14:06:16.000Z,24.1
2018-12-11T14:07:16.000Z,24.1
2018-12-11T14:09:16.000Z,24
2018-12-11T14:10:16.000Z,24
2018-12-11T14:12:16.000Z,24
2018-12-11T14:13:16.000Z,24
2018-12-11T14:14:16.000Z,24.1
2018-12-11T14:15:16.000Z,24.1
2018-12-11T14:17:16.000Z,24.1
2018-12-11T14:18:16.000Z,24.1
2018-12-11T14:20:16.000Z,24.2
2018-12-11T14:21:16.000Z,24.2
2018-12-11T14:23:16.000Z,24.2
2018-12-11T14:24:16.000Z,24.1
2018-12-11T14:26:16.000Z,24.1
2018-12-11T14:28:16.000Z,24
2018-12-11T14:30:16.000Z,23.9
2018-12-11T14:31:16.000Z,23.8
2018-12-11T14:32:16.000Z,23.9
2018-12-11T14:34:16.000Z,23.9
2018-12-11T14:35:16.000Z,23.8
2018-12-11T14:37:16.000Z,23.8
2018-12-11T14:39:16.000Z,23.7
2018-12-11T14:40:16.000Z,23.7
2018-12-11T14:41:16.000Z,23.7
2018-12-11T14:42:16.000Z,23.8
2018-12-11T14:44:16.000Z,24.1
2018-12-11T14:46:16.000Z,24.3
2018-12-11T14:47:16.000Z,24.4
2018-12-11T14:48:16.000Z,24.5
2018-12-11T14:49:16.000Z,24.6
2018-12-11T14:51:16.000Z,24.9
2018-12-11T14:53:16.000Z,25
2018-12-11T14:54:16.000Z,25
2018-12-11T14:56:16.000Z,25.1
2018-12-11T14:57:16.000Z,25.2
2018-12-11T14:59:16.000Z,25.3
2018-12-11T15:00:16.000Z,25.3
2018-12-11T15:02:00.000Z,25.4
2018-12-11T15:03:16.000Z,25.4
2018-12-11T15:04:16.000Z,25.4
2018-12-11T15:06:16.000Z,25.5
2018-12-11T15:08:16.000Z,25.5
2018-12-11T15:10:16.000Z,25.4
2018-12-11T15:12:16.000Z,25.4
2018-12-11T15:13:16.000Z,25.5
2018-12-11T15:15:16.000Z,25.5
2018-12-11T15:17:16.000Z,25.5
2018-12-11T15:19:16.000Z,25.4
2018-12-11T15:20:16.000Z,25.4
2018-12-11T15:22:16.000Z,25.5
2018-12-11T15:23:16.000Z,25.6
2018-12-11T15:25:16.000Z,25.6
2018-12-11T15:27:16.000Z,25.6
2018-12-11T15:29:16.000Z,25.6
2018-12-11T15:30:16.000Z,25.6
2018-12-11T15:32:16.000Z,25.7
2018-12-11T15:33:16.000Z,25.7
2018-12-11T15:35:00.000Z,25.8
2018-12-11T15:36:16.000Z,25.7
2018-12-11T15:38:16.000Z,25.7
2018-12-11T15:39:16.000Z,25.7
2018-12-11T15:41:16.000Z,25.7
2018-12-11T15:43:00.000Z,25.7
2018-12-11T15:44:16.000Z,25.7
2018-12-11T15:46:16.000Z,25.7
2018-12-11T15:47:16.000Z,25.8
2018-12-11T15:49:16.000Z,25.8
2018-12-11T15:51:16.000Z,25.6
2018-12-11T15:53:16.000Z,25.6
2018-12-11T15:55:16.000Z,25.6
2018-12-11T15:56:16.000Z,25.7
2018-12-11T15:57:16.000Z,25.7
2018-12-11T15:58:16.000Z,25.8
2018-12-11T16:00:16.000Z,25.9
2018-12-11T16:02:16.000Z,25.9
2018-12-11T16:03:16.000Z,26
2018-12-11T16:05:16.000Z,26
2018-12-11T16:07:16.000Z,25.9
2018-12-11T16:08:16.000Z,25.9
2018-12-11T16:10:16.000Z,25.8
2018-12-11T16:12:16.000Z,25.8
2018-12-11T16:13:16.000Z,25.9
2018-12-11T16:15:16.000Z,25.9
2018-12-11T16:17:16.000Z,25.9
2018-12-11T16:18:16.000Z,25.9
2018-12-11T16:19:16.000Z,26
2018-12-11T16:20:16.000Z,26.1
2018-12-11T16:21:16.000Z,26.1
2018-12-11T16:22:16.000Z,26.2
2018-12-11T16:24:16.000Z,26.3
2018-12-11T16:26:16.000Z,26.2
2018-12-11T16:28:16.000Z,26.1
2018-12-11T16:29:16.000Z,26.1
2018-12-11T16:30:16.000Z,26.1
2018-12-11T16:32:16.000Z,26.2
2018-12-11T16:33:16.000Z,26.2
2018-12-11T16:35:01.000Z,26.3
2018-12-11T16:36:16.000Z,26.2
2018-12-11T16:37:16.000Z,26.3
2018-12-11T16:38:16.000Z,26.3
2018-12-11T16:40:01.000Z,26.3
2018-12-11T16:41:16.000Z,26.2
2018-12-11T16:42:16.000Z,26.1
2018-12-11T16:43:16.000Z,26.2
2018-12-11T16:45:16.000Z,26.2
2018-12-11T16:46:16.000Z,26.2
2018-12-11T16:47:16.000Z,26.2
2018-12-11T16:49:16.000Z,26.3
2018-12-11T16:51:16.000Z,26.3
2018-12-11T16:52:16.000Z,26.3
2018-12-11T16:53:15.000Z,26.4
2018-12-11T16:55:15.000Z,26.4
2018-12-11T16:56:15.000Z,26.3
2018-12-11T16:58:15.000Z,26.4
2018-12-11T17:00:15.000Z,26.3
2018-12-11T17:02:15.000Z,26.3
2018-12-11T17:03:15.000Z,26.3
2018-12-11T17:05:15.000Z,26.3
2018-12-11T17:07:15.000Z,26.3
2018-12-11T17:09:15.000Z,26.2
2018-12-11T17:11:15.000Z,26.2
2018-12-11T17:12:15.000Z,26.2
2018-12-11T17:14:15.000Z,26.2
2018-12-11T17:16:15.000Z,26.3
2018-12-11T17:17:15.000Z,26.3
2018-12-11T17:18:15.000Z,26.4
2018-12-11T17:20:00.000Z,26.4
2018-12-11T17:21:15.000Z,26.4
2018-12-11T17:22:15.000Z,26.4
2018-12-11T17:23:15.000Z,26.4
2018-12-11T17:24:15.000Z,26.5
2018-12-11T17:26:15.000Z,26.5
2018-12-11T17:27:15.000Z,26.5
2018-12-11T17:28:15.000Z,26.5
2018-12-11T17:29:15.000Z,26.6
2018-12-11T17:31:15.000Z,26.6
2018-12-11T17:32:15.000Z,26.6
2018-12-11T17:34:15.000Z,26.6
2018-12-11T17:36:15.000Z,26.5
2018-12-11T17:38:15.000Z,26.3
2018-12-11T17:39:15.000Z,26.3
2018-12-11T17:41:15.000Z,26.3
2018-12-11T17:43:15.000Z,26.3
2018-12-11T17:44:15.000Z,26.3
2018-12-11T17:46:15.000Z,26.3
2018-12-11T17:48:00.000Z,26.3
2018-12-11T17:49:15.000Z,26.3
2018-12-11T17:50:15.000Z,26.3
2018-12-11T17:51:15.000Z,26.4
2018-12-11T17:53:15.000Z,26.5
2018-12-11T17:54:15.000Z,26.5
2018-12-11T17:56:00.000Z,26.6
2018-12-11T17:57:16.000Z,26.5
2018-12-11T17:58:16.000Z,26.5
2018-12-11T18:00:16.000Z,26.5
2018-12-11T18:01:16.000Z,26.5
2018-12-11T18:02:16.000Z,26.5
2018-12-11T18:04:16.000Z,26.6
2018-12-11T18:06:16.000Z,26.6
2018-12-11T18:08:16.000Z,26.5
2018-12-11T18:10:16.000Z,26.5
2018-12-11T18:12:16.000Z,26.5
2018-12-11T18:14:16.000Z,26.4
2018-12-11T18:16:16.000Z,26.4
2018-12-11T18:18:16.000Z,26.4
2018-12-11T18:20:16.000Z,26.3
2018-12-11T18:21:16.000Z,26.3
2018-12-11T18:22:16.000Z,26.4
2018-12-11T18:24:16.000Z,26.5
2018-12-11T18:26:16.000Z,26.5
2018-12-11T18:28:16.000Z,26.4
2018-12-11T18:29:16.000Z,26.4
2018-12-11T18:31:16.000Z,26.4
2018-12-11T18:33:16.000Z,26.4
2018-12-11T18:35:16.000Z,26.4
2018-12-11T18:37:16.000Z,26.4
2018-12-11T18:39:16.000Z,26.4
2018-12-11T18:41:16.000Z,26.4
2018-12-11T18:43:01.000Z,26.4
2018-12-11T18:44:16.000Z,26.3
2018-12-11T18:46:16.000Z,26.3
2018-12-11T18:48:16.000Z,26.2
2018-12-11T18:50:16.000Z,26.2
2018-12-11T18:52:16.000Z,26
2018-12-11T18:54:16.000Z,26
2018-12-11T18:56:16.000Z,26
2018-12-11T18:58:16.000Z,26.1
2018-12-11T19:00:16.000Z,26.1
2018-12-11T19:02:15.000Z,26.1
2018-12-11T19:03:15.000Z,26.2
2018-12-11T19:04:15.000Z,26.2
2018-12-11T19:05:15.000Z,26.4
2018-12-11T19:07:15.000Z,26.5
2018-12-11T19:09:00.000Z,26.4
2018-12-11T19:10:15.000Z,26.3
2018-12-11T19:12:00.000Z,26.3
2018-12-11T19:13:15.000Z,26.3
2018-12-11T19:14:15.000Z,26.3
2018-12-11T19:16:00.000Z,26.4
2018-12-11T19:17:15.000Z,26.3
2018-12-11T19:18:15.000Z,26.4
2018-12-11T19:20:15.000Z,26.4
2018-12-11T19:21:15.000Z,26.5
2018-12-11T19:23:15.000Z,26.4
2018-12-11T19:24:15.000Z,26.5
2018-12-11T19:25:15.000Z,26.5
2018-12-11T19:27:15.000Z,26.6
2018-12-11T19:29:15.000Z,26.6
2018-12-11T19:30:15.000Z,26.5
2018-12-11T19:31:15.000Z,26.6
2018-12-11T19:32:15.000Z,26.6
2018-12-11T19:34:15.000Z,26.7
2018-12-11T19:36:15.000Z,26.7
2018-12-11T19:37:15.000Z,26.7
2018-12-11T19:38:15.000Z,26.7
2018-12-11T19:40:00.000Z,26.7
2018-12-11T19:41:15.000Z,26.6
2018-12-11T19:43:00.000Z,26.5
2018-12-11T19:44:15.000Z,26.3
2018-12-11T19:45:15.000Z,26.3
2018-12-11T19:46:15.000Z,26.3
2018-12-11T19:47:15.000Z,26.3
2018-12-11T19:49:15.000Z,26.4
2018-12-11T19:50:15.000Z,26.4
2018-12-11T19:52:15.000Z,26.5
2018-12-11T19:53:15.000Z,26.5
2018-12-11T19:55:15.000Z,26.6
2018-12-11T19:56:15.000Z,26.6
2018-12-11T19:58:15.000Z,26.6
2018-12-11T20:00:00.000Z,26.6
2018-12-11T20:01:15.000Z,26.5
2018-12-11T20:03:15.000Z,26.5
2018-12-11T20:05:16.000Z,26.4
2018-12-11T20:07:16.000Z,26.4
2018-12-11T20:08:16.000Z,26.4
2018-12-11T20:09:16.000Z,26.4
2018-12-11T20:11:16.000Z,26.5
2018-12-11T20:13:16.000Z,26.5
2018-12-11T20:15:01.000Z,26.4
2018-12-11T20:16:16.000Z,26.3
2018-12-11T20:17:16.000Z,26.3
2018-12-11T20:19:16.000Z,26.3
2018-12-11T20:20:16.000Z,26.3
2018-12-11T20:22:16.000Z,26.4
2018-12-11T20:23:16.000Z,26.4
2018-12-11T20:25:00.000Z,26.4
2018-12-11T20:26:16.000Z,26.3
2018-12-11T20:27:16.000Z,26.3
2018-12-11T20:29:16.000Z,26.3
2018-12-11T20:31:00.000Z,26.3
2018-12-11T20:32:01.000Z,26.3
2018-12-11T20:33:16.000Z,26.3
2018-12-11T20:35:01.000Z,26.3
2018-12-11T20:36:16.000Z,26.2
2018-12-11T20:37:16.000Z,26.2
2018-12-11T20:38:16.000Z,26.2
2018-12-11T20:40:16.000Z,26.4
2018-12-11T20:41:16.000Z,26.4
2018-12-11T20:42:16.000Z,26.4
2018-12-11T20:44:16.000Z,26.5
2018-12-11T20:45:16.000Z,26.5
2018-12-11T20:47:00.000Z,26.5
2018-12-11T20:48:16.000Z,26.5
2018-12-11T20:50:16.000Z,26.5